Time;durP1;ratioP1;P1;durP2;ratioP2;P2;SDS_P1;SDS_P2;PMS_P1;PMS_P2;Temp;Humidity;BMP_temperature;BMP_pressure;BME280_temperature;BME280_humidity;BME280_pressure;Samples;Min_cycle;Max_cycle;Signal;HPM_P1;HPM_P2
2023/05/01 00:00:22;;;;;;;11.40;5.80;;;;;;;;;;5052075;28;20405;-81
2023/05/01 00:02:47;;;;;;;8.68;5.45;;;;;;;;;;5053529;28;20040;-81
2023/05/01 00:05:13;;;;;;;11.75;6.32;;;;;;;;;;5052823;28;20481;-81
2023/05/01 00:07:38;;;;;;;12.75;5.85;;;;;;;;;;5055248;28;20029;-81
2023/05/01 00:10:04;;;;;;;10.20;5.82;;;;;;;;;;5053378;28;20043;-81
2023/05/01 00:12:29;;;;;;;11.43;5.90;;;;;;;;;;5052443;28;20059;-81
2023/05/01 00:14:55;;;;;;;14.10;6.32;;;;;;;;;;5044946;28;20463;-81
2023/05/01 00:17:21;;;;;;;10.43;5.60;;;;;;;;;;5053683;28;20064;-80
2023/05/01 00:19:51;;;;;;;10.82;6.03;;;;;;;;;;5044799;28;20045;-82
2023/05/01 00:22:16;;;;;;;10.55;5.63;;;;;;;;;;5056470;28;20124;-81
2023/05/01 00:24:41;;;;;;;10.40;5.78;;;;;;;;;;5054606;28;20451;-81
2023/05/01 00:27:07;;;;;;;11.32;6.30;;;;;;;;;;5053000;28;20067;-81
2023/05/01 00:29:32;;;;;;;10.50;5.70;;;;;;;;;;5054965;28;20075;-81
2023/05/01 00:31:58;;;;;;;10.27;5.63;;;;;;;;;;5042461;28;20045;-81
2023/05/01 00:34:23;;;;;;;11.27;5.60;;;;;;;;;;5054053;28;20041;-81
2023/05/01 00:36:49;;;;;;;11.60;5.80;;;;;;;;;;5054772;28;20045;-80
2023/05/01 00:39:15;;;;;;;11.23;5.97;;;;;;;;;;5052722;28;20045;-80
2023/05/01 00:41:40;;;;;;;11.60;5.88;;;;;;;;;;5051782;28;20029;-80
2023/05/01 00:44:06;;;;;;;11.15;5.82;;;;;;;;;;5054739;28;20071;-80
2023/05/01 00:46:33;;;;;;;12.20;5.82;;;;;;;;;;5053894;28;20033;-80
2023/05/01 00:48:58;;;;;;;11.30;5.93;;;;;;;;;;5052897;28;20047;-79
2023/05/01 00:51:26;;;;;;;10.02;5.60;;;;;;;;;;5042957;28;20032;-80
2023/05/01 00:53:51;;;;;;;11.57;5.90;;;;;;;;;;5043865;28;20044;-80
2023/05/01 00:56:17;;;;;;;10.60;5.88;;;;;;;;;;5069537;28;20047;-81
2023/05/01 00:58:45;;;;;;;11.18;5.78;;;;;;;;;;5040489;28;20396;-81
2023/05/01 01:01:11;;;;;;;11.05;5.47;;;;;;;;;;5039767;28;20396;-79
2023/05/01 01:03:36;;;;;;;8.98;5.65;;;;;;;;;;5043315;28;20036;-80
2023/05/01 01:06:22;;;;;;;9.10;5.68;;;;;;;;;;5042843;28;20036;-80
2023/05/01 01:08:58;;;;;;;12.45;6.15;;;;;;;;;;5054001;28;20105;-81
2023/05/01 01:11:32;;;;;;;10.20;5.68;;;;;;;;;;5050558;28;20033;-80
2023/05/01 01:13:59;;;;;;;12.23;5.68;;;;;;;;;;5051126;28;20044;-80
2023/05/01 01:16:34;;;;;;;8.73;5.30;;;;;;;;;;5050608;28;20471;-80
2023/05/01 01:19:06;;;;;;;13.35;5.95;;;;;;;;;;5051125;28;20068;-81
2023/05/01 01:21:40;;;;;;;10.80;5.82;;;;;;;;;;5036991;28;20542;-80
2023/05/01 01:24:21;;;;;;;13.32;5.80;;;;;;;;;;5050661;28;20045;-81
2023/05/01 01:27:19;;;;;;;10.15;5.78;;;;;;;;;;5050933;28;20048;-81
2023/05/01 01:29:58;;;;;;;9.68;5.65;;;;;;;;;;5053325;28;20393;-80
2023/05/01 01:32:41;;;;;;;11.30;5.43;;;;;;;;;;5042515;28;20037;-80
2023/05/01 01:35:13;;;;;;;8.27;5.45;;;;;;;;;;5051278;28;20201;-80
2023/05/01 01:37:52;;;;;;;11.55;5.78;;;;;;;;;;5060267;28;20526;-81
2023/05/01 01:40:21;;;;;;;11.93;5.57;;;;;;;;;;5048851;28;20079;-81
2023/05/01 01:43:01;;;;;;;9.13;5.47;;;;;;;;;;5052597;28;20037;-80
2023/05/01 01:45:36;;;;;;;12.10;5.93;;;;;;;;;;5041578;28;20044;-80
2023/05/01 01:48:02;;;;;;;10.07;5.60;;;;;;;;;;5059880;28;20056;-80
2023/05/01 01:50:28;;;;;;;11.70;5.57;;;;;;;;;;5049757;28;20109;-79
2023/05/01 01:52:54;;;;;;;10.98;5.60;;;;;;;;;;5053922;28;20052;-80
2023/05/01 01:55:26;;;;;;;9.48;5.30;;;;;;;;;;5049580;28;20036;-79
2023/05/01 01:57:51;;;;;;;10.02;5.25;;;;;;;;;;5043612;28;20477;-79
2023/05/01 02:00:18;;;;;;;8.90;4.88;;;;;;;;;;5052318;28;20085;-80
2023/05/01 02:02:44;;;;;;;10.60;4.63;;;;;;;;;;5043721;28;20071;-80
2023/05/01 02:05:13;;;;;;;10.27;5.70;;;;;;;;;;5051384;28;20049;-80
2023/05/01 02:07:39;;;;;;;9.88;5.53;;;;;;;;;;5060032;28;20036;-80
2023/05/01 02:10:10;;;;;;;11.55;5.88;;;;;;;;;;5050639;28;20173;-80
2023/05/01 02:12:36;;;;;;;10.32;5.05;;;;;;;;;;5043359;28;20509;-80
2023/05/01 02:15:02;;;;;;;9.32;5.03;;;;;;;;;;5053428;28;20048;-80
2023/05/01 02:17:29;;;;;;;12.38;5.15;;;;;;;;;;5042832;28;20373;-80
2023/05/01 02:19:56;;;;;;;11.63;5.22;;;;;;;;;;5047812;28;20653;-80
2023/05/01 02:22:22;;;;;;;14.60;6.18;;;;;;;;;;5037875;28;20041;-80
2023/05/01 02:24:47;;;;;;;11.05;6.10;;;;;;;;;;5033801;28;20412;-81
2023/05/01 02:27:38;;;;;;;10.25;5.40;;;;;;;;;;5043005;28;20041;-80
2023/05/01 02:30:05;;;;;;;10.27;5.80;;;;;;;;;;5065983;28;20043;-81
2023/05/01 02:32:31;;;;;;;10.20;6.00;;;;;;;;;;5050058;28;20491;-80
2023/05/01 02:34:56;;;;;;;12.13;5.70;;;;;;;;;;5049928;28;20052;-81
2023/05/01 02:37:22;;;;;;;12.18;5.72;;;;;;;;;;5042332;28;20041;-79
2023/05/01 02:39:47;;;;;;;11.27;5.90;;;;;;;;;;5059211;28;20913;-81
2023/05/01 02:42:14;;;;;;;11.07;5.97;;;;;;;;;;5033690;28;20037;-80
2023/05/01 02:45:03;;;;;;;11.02;5.35;;;;;;;;;;5036970;28;20504;-80
2023/05/01 02:47:29;;;;;;;10.65;5.68;;;;;;;;;;5050185;28;20032;-81
2023/05/01 02:49:55;;;;;;;11.15;5.93;;;;;;;;;;5053429;28;20068;-81
2023/05/01 02:52:21;;;;;;;10.13;5.82;;;;;;;;;;5050978;28;20071;-79
2023/05/01 02:54:47;;;;;;;11.00;5.63;;;;;;;;;;5049475;28;20841;-80
2023/05/01 02:57:12;;;;;;;12.23;6.13;;;;;;;;;;5039379;28;20067;-80
2023/05/01 02:59:39;;;;;;;10.18;5.28;;;;;;;;;;5034450;28;20140;-81
2023/05/01 03:02:06;;;;;;;10.97;5.80;;;;;;;;;;5038411;28;20504;-80
2023/05/01 03:04:31;;;;;;;10.85;6.07;;;;;;;;;;5052852;28;20396;-80
2023/05/01 03:06:57;;;;;;;9.75;5.55;;;;;;;;;;5051319;28;20041;-80
2023/05/01 03:09:22;;;;;;;12.48;6.20;;;;;;;;;;5065651;28;20048;-80
2023/05/01 03:11:47;;;;;;;10.68;6.40;;;;;;;;;;5031411;28;20033;-81
2023/05/01 03:14:13;;;;;;;10.07;5.65;;;;;;;;;;5049923;28;20139;-80
2023/05/01 03:16:39;;;;;;;13.13;5.97;;;;;;;;;;5048983;28;20684;-81
2023/05/01 03:19:05;;;;;;;9.82;5.22;;;;;;;;;;5050586;28;20478;-81
2023/05/01 03:21:30;;;;;;;11.43;5.78;;;;;;;;;;5049568;28;20032;-80
2023/05/01 03:23:56;;;;;;;11.50;5.88;;;;;;;;;;5053476;28;20515;-81
2023/05/01 03:26:21;;;;;;;11.82;5.50;;;;;;;;;;5047637;28;20386;-80
2023/05/01 03:28:47;;;;;;;9.80;5.07;;;;;;;;;;5049571;28;20123;-81
2023/05/01 03:31:13;;;;;;;12.30;5.60;;;;;;;;;;5051163;28;20044;-81
2023/05/01 03:33:39;;;;;;;10.05;5.45;;;;;;;;;;5051738;28;20041;-80
2023/05/01 03:36:04;;;;;;;9.82;5.05;;;;;;;;;;5055917;28;20044;-81
2023/05/01 03:38:31;;;;;;;10.15;5.63;;;;;;;;;;5053530;28;20040;-80
2023/05/01 03:40:56;;;;;;;11.65;5.43;;;;;;;;;;5061571;28;20486;-80
2023/05/01 03:43:22;;;;;;;11.85;5.25;;;;;;;;;;5055480;28;20037;-81
2023/05/01 03:45:49;;;;;;;10.80;5.78;;;;;;;;;;5054859;28;20036;-81
2023/05/01 03:48:14;;;;;;;9.73;5.13;;;;;;;;;;5041066;28;20422;-81
2023/05/01 03:50:39;;;;;;;9.57;5.18;;;;;;;;;;5057597;28;20054;-81
2023/05/01 03:53:05;;;;;;;8.40;4.68;;;;;;;;;;5058069;28;20060;-81
2023/05/01 03:55:30;;;;;;;11.05;5.05;;;;;;;;;;5041835;28;20064;-81
2023/05/01 03:57:56;;;;;;;9.15;4.72;;;;;;;;;;5053523;28;20045;-81
2023/05/01 04:00:21;;;;;;;10.52;5.20;;;;;;;;;;5051781;28;20036;-79
2023/05/01 04:02:46;;;;;;;9.50;5.13;;;;;;;;;;5053881;28;20515;-80
2023/05/01 04:05:13;;;;;;;11.40;5.63;;;;;;;;;;5057993;28;20107;-80
2023/05/01 04:07:39;;;;;;;8.13;4.80;;;;;;;;;;5052336;28;20132;-81
2023/05/01 04:10:06;;;;;;;9.30;4.97;;;;;;;;;;5053289;28;20045;-81
2023/05/01 04:12:31;;;;;;;10.85;5.18;;;;;;;;;;5053840;28;20561;-81
2023/05/01 04:14:56;;;;;;;11.85;5.03;;;;;;;;;;5054681;28;20041;-81
2023/05/01 04:17:22;;;;;;;9.48;4.75;;;;;;;;;;5055420;28;20036;-80
2023/05/01 04:19:48;;;;;;;8.60;4.43;;;;;;;;;;5053003;28;20447;-81
2023/05/01 04:22:13;;;;;;;8.98;4.32;;;;;;;;;;5035114;28;20036;-81
2023/05/01 04:24:38;;;;;;;11.30;4.35;;;;;;;;;;5060397;28;20116;-81
2023/05/01 04:27:04;;;;;;;9.30;4.93;;;;;;;;;;5053665;28;20040;-81
2023/05/01 04:29:30;;;;;;;10.63;4.35;;;;;;;;;;5051860;28;20424;-80
2023/05/01 04:31:56;;;;;;;7.18;4.15;;;;;;;;;;5053632;28;20041;-80
2023/05/01 04:34:21;;;;;;;10.77;4.50;;;;;;;;;;5050022;28;20032;-81
2023/05/01 04:36:47;;;;;;;9.27;4.22;;;;;;;;;;5052400;28;20043;-80
2023/05/01 04:39:12;;;;;;;6.88;3.83;;;;;;;;;;5052923;28;20118;-81
2023/05/01 04:41:37;;;;;;;9.27;4.68;;;;;;;;;;5038188;28;20033;-80
2023/05/01 04:44:03;;;;;;;9.18;3.80;;;;;;;;;;5059129;28;20033;-80
2023/05/01 04:46:28;;;;;;;7.75;3.30;;;;;;;;;;5037719;28;20396;-81
2023/05/01 04:48:54;;;;;;;7.90;3.60;;;;;;;;;;5050727;28;20101;-81
2023/05/01 04:51:20;;;;;;;7.03;3.55;;;;;;;;;;5053452;28;20029;-81
2023/05/01 04:53:45;;;;;;;6.78;3.47;;;;;;;;;;5051724;28;20131;-81
2023/05/01 04:56:11;;;;;;;8.60;3.63;;;;;;;;;;5055148;28;20052;-82
2023/05/01 04:58:36;;;;;;;8.25;3.72;;;;;;;;;;5052021;28;20036;-81
2023/05/01 05:01:02;;;;;;;10.18;3.88;;;;;;;;;;5058514;28;20503;-81
2023/05/01 05:03:27;;;;;;;6.20;2.83;;;;;;;;;;5053046;28;20037;-82
2023/05/01 05:05:52;;;;;;;7.13;3.60;;;;;;;;;;5050283;28;20032;-81
2023/05/01 05:08:18;;;;;;;7.78;2.97;;;;;;;;;;5052487;28;20032;-81
2023/05/01 05:10:43;;;;;;;8.82;3.60;;;;;;;;;;5052331;28;20037;-81
2023/05/01 05:13:09;;;;;;;5.55;2.90;;;;;;;;;;5052219;28;20037;-80
2023/05/01 05:15:34;;;;;;;8.05;3.17;;;;;;;;;;5035881;28;20506;-80
2023/05/01 05:17:59;;;;;;;5.57;3.15;;;;;;;;;;5049921;28;20062;-79
2023/05/01 05:20:25;;;;;;;6.75;2.83;;;;;;;;;;5053923;28;20614;-81
2023/05/01 05:22:51;;;;;;;9.82;3.40;;;;;;;;;;5061478;28;20067;-80
2023/05/01 05:25:16;;;;;;;9.18;3.45;;;;;;;;;;5053093;28;20086;-80
2023/05/01 05:27:42;;;;;;;7.50;3.40;;;;;;;;;;5037693;28;20444;-81
2023/05/01 05:30:08;;;;;;;4.32;2.33;;;;;;;;;;5053704;28;20047;-80
2023/05/01 05:32:33;;;;;;;7.63;3.35;;;;;;;;;;5050604;28;20404;-81
2023/05/01 05:34:59;;;;;;;6.85;3.05;;;;;;;;;;5050517;28;20068;-80
2023/05/01 05:37:24;;;;;;;5.60;3.10;;;;;;;;;;5058834;28;20388;-80
2023/05/01 05:39:51;;;;;;;7.10;2.60;;;;;;;;;;5041167;28;20412;-81
2023/05/01 05:42:16;;;;;;;6.28;2.97;;;;;;;;;;5042154;28;20040;-81
2023/05/01 05:44:41;;;;;;;6.43;3.08;;;;;;;;;;5051722;28;20037;-81
2023/05/01 05:47:07;;;;;;;6.70;3.08;;;;;;;;;;5049858;28;20033;-80
2023/05/01 05:49:32;;;;;;;6.65;3.28;;;;;;;;;;5037291;28;20025;-80
2023/05/01 05:51:57;;;;;;;7.80;3.25;;;;;;;;;;5050941;28;20044;-81
2023/05/01 05:54:23;;;;;;;6.47;3.10;;;;;;;;;;5054937;28;20037;-79
2023/05/01 05:56:48;;;;;;;6.35;2.75;;;;;;;;;;5050515;28;20041;-81
2023/05/01 05:59:13;;;;;;;8.52;2.85;;;;;;;;;;5050840;28;20033;-81
2023/05/01 06:01:39;;;;;;;5.18;2.78;;;;;;;;;;5042645;28;20602;-81
2023/05/01 06:04:05;;;;;;;7.38;2.65;;;;;;;;;;5033203;28;20040;-81
2023/05/01 06:06:31;;;;;;;7.47;2.90;;;;;;;;;;5049266;28;20037;-81
2023/05/01 06:08:57;;;;;;;6.85;2.97;;;;;;;;;;5043181;28;20601;-81
2023/05/01 06:11:22;;;;;;;7.22;3.10;;;;;;;;;;5040531;28;20033;-80
2023/05/01 06:13:48;;;;;;;6.22;2.38;;;;;;;;;;5033991;28;20037;-80
2023/05/01 06:16:14;;;;;;;7.38;3.03;;;;;;;;;;5057024;28;20061;-80
2023/05/01 06:18:40;;;;;;;6.88;2.70;;;;;;;;;;5036820;28;20033;-81
2023/05/01 06:21:05;;;;;;;6.55;2.65;;;;;;;;;;5052004;28;20315;-81
2023/05/01 06:23:32;;;;;;;5.80;2.70;;;;;;;;;;5050469;28;20392;-81
2023/05/01 06:25:58;;;;;;;9.10;3.05;;;;;;;;;;5050092;28;20041;-81
2023/05/01 06:28:24;;;;;;;5.80;2.80;;;;;;;;;;5052776;28;20492;-80
2023/05/01 06:30:49;;;;;;;7.95;2.70;;;;;;;;;;5033348;28;20045;-80
2023/05/01 06:33:15;;;;;;;6.50;2.50;;;;;;;;;;5032446;28;20409;-82
2023/05/01 06:35:40;;;;;;;6.60;2.60;;;;;;;;;;5036144;28;20040;-80
2023/05/01 06:38:05;;;;;;;6.25;2.60;;;;;;;;;;5039211;28;20051;-82
2023/05/01 06:40:33;;;;;;;6.63;2.45;;;;;;;;;;5053672;28;20044;-80
2023/05/01 06:42:58;;;;;;;;;;;;;;;;;;5036961;28;20688;-80
2023/05/01 06:45:24;;;;;;;5.22;2.20;;;;;;;;;;5056575;28;19924;-80
2023/05/01 06:47:49;;;;;;;5.72;2.30;;;;;;;;;;5050107;28;20510;-80
2023/05/01 06:50:15;;;;;;;5.40;2.95;;;;;;;;;;5053294;28;20409;-80
2023/05/01 06:52:40;;;;;;;6.32;2.28;;;;;;;;;;5049263;28;20045;-81
2023/05/01 06:55:06;;;;;;;7.05;2.42;;;;;;;;;;5050814;28;20645;-80
2023/05/01 06:57:32;;;;;;;6.28;2.08;;;;;;;;;;5037043;28;20048;-80
2023/05/01 06:59:57;;;;;;;5.80;2.50;;;;;;;;;;5050165;28;20040;-81
2023/05/01 07:02:22;;;;;;;4.50;2.20;;;;;;;;;;5050067;28;20404;-79
2023/05/01 07:04:48;;;;;;;7.53;2.55;;;;;;;;;;5052859;28;20032;-80
2023/05/01 07:07:13;;;;;;;7.90;2.70;;;;;;;;;;5054803;28;20086;-81
2023/05/01 07:09:39;;;;;;;4.03;2.20;;;;;;;;;;5055420;28;20036;-80
2023/05/01 07:12:05;;;;;;;5.80;2.30;;;;;;;;;;5038947;28;20525;-80
2023/05/01 07:14:30;;;;;;;4.88;2.35;;;;;;;;;;5052246;28;20124;-80
2023/05/01 07:16:56;;;;;;;5.88;2.60;;;;;;;;;;5056654;28;20102;-80
2023/05/01 07:19:21;;;;;;;4.53;2.10;;;;;;;;;;5052255;28;20047;-81
2023/05/01 07:21:46;;;;;;;4.93;2.05;;;;;;;;;;5055830;28;20044;-81
2023/05/01 07:24:12;;;;;;;7.00;2.60;;;;;;;;;;5053995;28;20063;-81
2023/05/01 07:26:37;;;;;;;5.60;1.95;;;;;;;;;;5050784;28;20453;-82
2023/05/01 07:29:03;;;;;;;6.35;2.33;;;;;;;;;;5052109;28;20101;-82
2023/05/01 07:31:29;;;;;;;5.05;2.00;;;;;;;;;;5053413;28;20485;-81
2023/05/01 07:33:54;;;;;;;6.18;2.35;;;;;;;;;;5057494;28;20053;-81
2023/05/01 07:36:21;;;;;;;4.82;2.00;;;;;;;;;;5055080;28;20036;-82
2023/05/01 07:38:47;;;;;;;7.30;2.53;;;;;;;;;;5055098;28;20522;-81
2023/05/01 07:41:12;;;;;;;6.63;2.25;;;;;;;;;;5053069;28;20065;-81
2023/05/01 07:43:37;;;;;;;7.63;2.40;;;;;;;;;;5055270;28;20068;-81
2023/05/01 07:46:04;;;;;;;5.75;2.35;;;;;;;;;;5053388;28;20044;-81
2023/05/01 07:48:31;;;;;;;4.80;1.92;;;;;;;;;;5042531;28;20041;-81
2023/05/01 07:50:56;;;;;;;7.43;2.50;;;;;;;;;;5061627;28;20124;-81
2023/05/01 07:53:22;;;;;;;6.30;2.30;;;;;;;;;;5055661;28;20729;-81
2023/05/01 07:55:48;;;;;;;4.93;2.30;;;;;;;;;;5040343;28;20045;-81
2023/05/01 07:58:16;;;;;;;6.80;2.27;;;;;;;;;;5041926;28;20033;-81
2023/05/01 08:00:43;;;;;;;7.18;2.33;;;;;;;;;;5021127;28;20843;-82
2023/05/01 08:03:09;;;;;;;;;;;;;;;;;;5040297;28;20040;-82
2023/05/01 08:05:34;;;;;;;6.67;1.93;;;;;;;;;;5023551;28;19917;-81
2023/05/01 08:07:59;;;;;;;6.30;2.55;;;;;;;;;;5054963;28;20276;-81
2023/05/01 08:10:27;;;;;;;5.30;2.10;;;;;;;;;;5039369;28;20032;-80
2023/05/01 08:12:52;;;;;;;5.85;2.10;;;;;;;;;;5062201;28;20239;-80
2023/05/01 08:15:19;;;;;;;6.38;2.00;;;;;;;;;;5041974;28;20124;-81
2023/05/01 08:17:45;;;;;;;4.80;1.77;;;;;;;;;;5054347;28;20515;-81
2023/05/01 08:20:11;;;;;;;5.43;1.77;;;;;;;;;;5039416;28;20032;-81
2023/05/01 08:22:37;;;;;;;4.70;1.73;;;;;;;;;;5052961;28;20511;-81
2023/05/01 08:25:03;;;;;;;6.72;2.30;;;;;;;;;;5052159;28;20037;-82
2023/05/01 08:27:29;;;;;;;4.97;1.67;;;;;;;;;;5061047;28;20041;-81
2023/05/01 08:29:54;;;;;;;3.35;1.80;;;;;;;;;;5052202;28;20391;-81
2023/05/01 08:32:20;;;;;;;4.32;1.52;;;;;;;;;;5038973;28;20111;-81
2023/05/01 08:34:46;;;;;;;5.75;1.55;;;;;;;;;;5051359;28;20059;-82
2023/05/01 08:37:11;;;;;;;4.32;1.80;;;;;;;;;;5049895;28;20078;-81
2023/05/01 08:39:37;;;;;;;4.63;1.70;;;;;;;;;;5052435;28;20575;-81
2023/05/01 08:42:02;;;;;;;4.35;1.52;;;;;;;;;;5049926;28;20055;-81
2023/05/01 08:44:29;;;;;;;4.03;1.67;;;;;;;;;;5053375;28;20040;-81
2023/05/01 08:47:14;;;;;;;3.90;1.27;;;;;;;;;;5061523;28;20514;-81
2023/05/01 08:49:40;;;;;;;4.85;1.40;;;;;;;;;;5051089;28;20700;-81
2023/05/01 08:52:07;;;;;;;7.07;1.77;;;;;;;;;;5060612;28;20157;-81
2023/05/01 08:54:33;;;;;;;4.33;1.60;;;;;;;;;;5060903;28;20036;-81
2023/05/01 08:57:03;;;;;;;4.78;1.88;;;;;;;;;;5041276;28;20033;-81
2023/05/01 08:59:30;;;;;;;3.95;1.67;;;;;;;;;;5052152;28;20523;-81
2023/05/01 09:02:03;;;;;;;6.22;2.50;;;;;;;;;;5051195;28;20052;-80
2023/05/01 09:04:34;;;;;;;5.57;1.65;;;;;;;;;;5036679;28;20045;-81
2023/05/01 09:07:00;;;;;;;5.07;1.80;;;;;;;;;;5040299;28;20121;-81
2023/05/01 09:09:29;;;;;;;4.35;1.60;;;;;;;;;;5044058;28;20153;-81
2023/05/01 09:12:13;;;;;;;4.93;1.70;;;;;;;;;;5053009;28;20493;-80
2023/05/01 09:14:38;;;;;;;3.92;1.65;;;;;;;;;;5050913;28;20041;-81
2023/05/01 09:17:04;;;;;;;5.20;1.50;;;;;;;;;;5041314;28;20074;-81
2023/05/01 09:19:29;;;;;;;4.95;1.40;;;;;;;;;;5052343;28;20102;-81
2023/05/01 09:21:55;;;;;;;3.78;1.58;;;;;;;;;;5038241;28;20071;-81
2023/05/01 09:24:26;;;;;;;4.85;1.67;;;;;;;;;;5059154;28;20128;-81
2023/05/01 09:26:51;;;;;;;4.53;1.67;;;;;;;;;;5043076;28;20563;-81
2023/05/01 09:29:46;;;;;;;5.85;1.60;;;;;;;;;;5050535;28;20033;-82
2023/05/01 09:32:22;;;;;;;4.85;1.60;;;;;;;;;;5042871;28;20127;-83
2023/05/01 09:34:50;;;;;;;3.60;1.58;;;;;;;;;;5051201;28;20098;-84
2023/05/01 09:37:28;;;;;;;3.90;1.50;;;;;;;;;;5058777;28;20480;-81
2023/05/01 09:40:03;;;;;;;5.57;1.92;;;;;;;;;;5051293;28;20903;-81
2023/05/01 09:42:30;;;;;;;3.60;1.50;;;;;;;;;;5058975;28;20519;-81
2023/05/01 09:44:55;;;;;;;4.50;1.40;;;;;;;;;;5050869;28;20733;-81
2023/05/01 09:47:23;;;;;;;4.45;1.42;;;;;;;;;;5054482;28;20036;-81
2023/05/01 09:50:09;;;;;;;3.60;1.25;;;;;;;;;;5051170;28;20373;-81
2023/05/01 09:52:35;;;;;;;6.57;1.75;;;;;;;;;;4991664;28;20449;-81
2023/05/01 09:55:22;;;;;;;4.35;1.52;;;;;;;;;;4983324;28;20034;-81
2023/05/01 09:57:48;;;;;;;4.13;1.65;;;;;;;;;;4991806;28;20042;-82
2023/05/01 10:00:14;;;;;;;4.70;1.90;;;;;;;;;;4977347;28;20047;-82
2023/05/01 10:02:43;;;;;;;4.30;1.77;;;;;;;;;;4975459;28;20054;-81
2023/05/01 10:05:10;;;;;;;5.25;1.85;;;;;;;;;;4983257;28;20161;-82
2023/05/01 10:07:35;;;;;;;3.13;1.58;;;;;;;;;;4978465;28;20401;-82
2023/05/01 10:10:22;;;;;;;4.47;1.52;;;;;;;;;;4991229;28;20082;-82
2023/05/01 10:12:48;;;;;;;4.68;1.73;;;;;;;;;;4966341;28;20046;-81
2023/05/01 10:15:14;;;;;;;5.82;1.70;;;;;;;;;;4983089;28;20041;-81
2023/05/01 10:17:42;;;;;;;4.32;1.73;;;;;;;;;;4978598;28;20565;-82
2023/05/01 10:20:11;;;;;;;4.10;1.63;;;;;;;;;;4968118;28;20065;-81
2023/05/01 10:22:37;;;;;;;4.13;1.70;;;;;;;;;;4982458;28;20042;-81
2023/05/01 10:25:10;;;;;;;5.53;1.70;;;;;;;;;;4983873;28;20384;-81
2023/05/01 10:27:40;;;;;;;4.47;1.52;;;;;;;;;;4977732;28;20046;-81
2023/05/01 10:30:07;;;;;;;4.43;1.65;;;;;;;;;;5025425;28;20068;-82
2023/05/01 10:32:33;;;;;;;4.57;1.83;;;;;;;;;;5023168;28;20037;-81
2023/05/01 10:35:08;;;;;;;4.90;1.60;;;;;;;;;;5031035;28;20065;-82
2023/05/01 10:37:46;;;;;;;3.83;1.60;;;;;;;;;;5036529;28;20033;-82
2023/05/01 10:40:56;;;;;;;5.28;1.83;;;;;;;;;;5054053;28;20055;-82
2023/05/01 10:43:27;;;;;;;3.25;1.70;;;;;;;;;;5053394;28;20151;-82
2023/05/01 10:46:20;;;;;;;3.53;1.42;;;;;;;;;;5037186;28;20123;-79
2023/05/01 10:48:45;;;;;;;5.60;1.90;;;;;;;;;;5050450;28;20036;-80
2023/05/01 10:51:11;;;;;;;3.28;1.40;;;;;;;;;;5052038;28;20412;-79
2023/05/01 10:53:37;;;;;;;4.53;1.60;;;;;;;;;;5049971;28;20840;-79
2023/05/01 10:56:04;;;;;;;5.50;1.73;;;;;;;;;;5048409;28;20039;-78
2023/05/01 10:58:35;;;;;;;5.00;1.88;;;;;;;;;;5035512;28;20349;-79
2023/05/01 11:01:26;;;;;;;3.85;1.63;;;;;;;;;;5050378;28;20972;-79
2023/05/01 11:03:52;;;;;;;4.95;1.90;;;;;;;;;;5049531;28;20454;-79
2023/05/01 11:06:17;;;;;;;4.88;1.70;;;;;;;;;;5054200;28;20040;-79
2023/05/01 11:08:44;;;;;;;4.97;1.90;;;;;;;;;;5035737;28;20072;-78
2023/05/01 11:11:18;;;;;;;4.85;2.03;;;;;;;;;;5050706;28;20029;-79
2023/05/01 11:14:00;;;;;;;4.70;1.95;;;;;;;;;;5050588;28;20163;-78
2023/05/01 11:16:58;;;;;;;3.72;1.77;;;;;;;;;;5055049;28;20337;-81
2023/05/01 11:19:23;;;;;;;3.75;1.80;;;;;;;;;;5001806;28;20047;-79
2023/05/01 11:21:49;;;;;;;3.85;2.08;;;;;;;;;;5013648;28;20492;-79
2023/05/01 11:24:17;;;;;;;4.53;1.83;;;;;;;;;;5010471;28;20109;-79
2023/05/01 11:26:43;;;;;;;5.20;2.28;;;;;;;;;;5009634;28;20054;-80
2023/05/01 11:29:09;;;;;;;4.72;2.10;;;;;;;;;;5010323;28;20069;-79
2023/05/01 11:31:35;;;;;;;4.50;1.98;;;;;;;;;;5010012;28;20046;-80
2023/05/01 11:34:01;;;;;;;4.68;2.10;;;;;;;;;;5009824;28;20197;-80
2023/05/01 11:36:28;;;;;;;4.20;2.00;;;;;;;;;;4993369;28;20033;-80
2023/05/01 11:38:56;;;;;;;5.78;2.17;;;;;;;;;;5002473;28;20114;-79
2023/05/01 11:41:22;;;;;;;6.18;2.33;;;;;;;;;;5011042;28;20046;-80
2023/05/01 11:43:50;;;;;;;4.67;1.80;;;;;;;;;;5011258;28;20371;-80
2023/05/01 11:46:29;;;;;;;3.83;2.10;;;;;;;;;;5011484;28;20034;-81
2023/05/01 11:48:55;;;;;;;5.55;2.17;;;;;;;;;;5001959;28;20056;-79
2023/05/01 11:51:21;;;;;;;5.00;2.40;;;;;;;;;;5010835;28;20073;-81
2023/05/01 11:53:59;;;;;;;4.05;1.75;;;;;;;;;;5013683;28;20045;-79
2023/05/01 11:56:25;;;;;;;5.03;1.70;;;;;;;;;;5047425;28;20297;-79
2023/05/01 11:58:52;;;;;;;5.43;1.98;;;;;;;;;;5035459;28;20041;-79
2023/05/01 12:01:17;;;;;;;5.75;1.92;;;;;;;;;;5050994;28;20041;-79
2023/05/01 12:03:43;;;;;;;4.57;2.15;;;;;;;;;;5052428;28;20111;-80
2023/05/01 12:06:12;;;;;;;4.13;2.15;;;;;;;;;;5055517;28;20997;-80
2023/05/01 12:08:44;;;;;;;4.38;2.25;;;;;;;;;;5053362;28;20082;-78
2023/05/01 12:11:09;;;;;;;4.50;2.30;;;;;;;;;;5038069;28;20483;-81
2023/05/01 12:13:35;;;;;;;6.53;2.25;;;;;;;;;;5061779;28;20045;-80
2023/05/01 12:16:02;;;;;;;5.57;2.40;;;;;;;;;;5052290;28;20044;-79
2023/05/01 12:18:27;;;;;;;6.47;2.80;;;;;;;;;;5052518;28;20454;-79
2023/05/01 12:20:54;;;;;;;6.10;2.28;;;;;;;;;;5052225;28;20282;-77
2023/05/01 12:23:30;;;;;;;6.70;2.72;;;;;;;;;;5054072;28;20040;-79
2023/05/01 12:25:56;;;;;;;5.00;2.50;;;;;;;;;;5051707;28;20072;-78
2023/05/01 12:28:23;;;;;;;5.28;2.60;;;;;;;;;;5054051;28;20154;-79
2023/05/01 12:30:48;;;;;;;4.97;2.50;;;;;;;;;;5055434;28;20072;-79
2023/05/01 12:33:18;;;;;;;5.28;2.70;;;;;;;;;;5060324;28;20504;-79
2023/05/01 12:35:45;;;;;;;5.15;2.42;;;;;;;;;;5049176;28;20037;-79
2023/05/01 12:38:16;;;;;;;5.65;2.53;;;;;;;;;;5052537;28;20094;-79
2023/05/01 12:40:56;;;;;;;5.18;2.45;;;;;;;;;;5050406;28;20036;-79
2023/05/01 12:43:33;;;;;;;5.88;2.75;;;;;;;;;;5059338;28;20048;-79
2023/05/01 12:45:59;;;;;;;7.57;2.53;;;;;;;;;;5052479;28;20127;-79
2023/05/01 12:48:25;;;;;;;6.35;2.85;;;;;;;;;;5053493;28;20372;-79
2023/05/01 12:50:54;;;;;;;6.72;3.03;;;;;;;;;;5058884;28;20162;-80
2023/05/01 12:53:24;;;;;;;7.50;2.92;;;;;;;;;;5052223;28;20071;-79
2023/05/01 12:55:52;;;;;;;6.22;3.00;;;;;;;;;;5049904;28;20059;-79
2023/05/01 12:58:18;;;;;;;4.88;2.80;;;;;;;;;;5051618;28;20029;-79
2023/05/01 13:00:53;;;;;;;4.97;2.40;;;;;;;;;;5049067;28;20039;-79
2023/05/01 13:03:29;;;;;;;7.75;3.00;;;;;;;;;;5051787;28;20048;-79
2023/05/01 13:06:01;;;;;;;5.85;2.38;;;;;;;;;;5037927;28;20045;-79
2023/05/01 13:08:36;;;;;;;7.50;2.75;;;;;;;;;;5059355;28;20080;-79
2023/05/01 13:11:12;;;;;;;5.95;2.53;;;;;;;;;;5050274;28;20119;-79
2023/05/01 13:13:38;;;;;;;5.43;2.60;;;;;;;;;;5052309;28;20044;-79
2023/05/01 13:16:08;;;;;;;6.35;2.70;;;;;;;;;;5036730;28;20040;-79
2023/05/01 13:18:41;;;;;;;5.40;2.53;;;;;;;;;;5049834;28;20037;-80
2023/05/01 13:21:12;;;;;;;9.38;2.85;;;;;;;;;;5048073;28;20398;-79
2023/05/01 13:23:38;;;;;;;4.13;2.10;;;;;;;;;;5051626;28;20039;-79
2023/05/01 13:26:05;;;;;;;11.32;3.10;;;;;;;;;;5052259;28;20057;-78
2023/05/01 13:28:32;;;;;;;;;;;;;;;;;;5039226;28;20427;-79
2023/05/01 13:30:57;;;;;;;5.50;2.70;;;;;;;;;;5035706;28;19916;-79
2023/05/01 13:33:22;;;;;;;5.65;3.00;;;;;;;;;;5041627;28;20048;-78
2023/05/01 13:35:48;;;;;;;5.57;2.90;;;;;;;;;;5050965;28;20628;-79
2023/05/01 13:38:14;;;;;;;5.03;2.40;;;;;;;;;;5049126;28;20500;-78
2023/05/01 13:40:40;;;;;;;5.27;2.77;;;;;;;;;;5049083;28;20078;-78
2023/05/01 13:43:12;;;;;;;5.60;2.78;;;;;;;;;;5057730;28;20278;-79
2023/05/01 13:45:38;;;;;;;4.32;2.40;;;;;;;;;;5056946;28;20069;-80
2023/05/01 13:48:04;;;;;;;6.03;2.88;;;;;;;;;;5060478;28;20147;-79
2023/05/01 13:50:29;;;;;;;6.38;2.78;;;;;;;;;;5051973;28;20037;-79
2023/05/01 13:52:54;;;;;;;6.18;2.40;;;;;;;;;;5048517;28;20041;-80
2023/05/01 13:55:20;;;;;;;6.10;2.75;;;;;;;;;;5050834;28;20033;-79
2023/05/01 13:57:46;;;;;;;5.40;2.45;;;;;;;;;;5058291;28;20187;-78
2023/05/01 14:00:18;;;;;;;5.05;2.28;;;;;;;;;;5048015;28;20094;-77
2023/05/01 14:02:47;;;;;;;6.55;2.50;;;;;;;;;;5051959;28;20032;-79
2023/05/01 14:05:14;;;;;;;4.95;2.60;;;;;;;;;;5038632;28;20044;-78
2023/05/01 14:07:46;;;;;;;5.60;2.67;;;;;;;;;;5059470;28;20044;-79
2023/05/01 14:10:11;;;;;;;5.38;2.85;;;;;;;;;;5051008;28;20124;-78
2023/05/01 14:12:38;;;;;;;5.13;2.67;;;;;;;;;;5048181;28;20043;-80
2023/05/01 14:15:03;;;;;;;5.25;2.53;;;;;;;;;;5048870;28;20033;-77
2023/05/01 14:17:36;;;;;;;5.25;2.90;;;;;;;;;;5049672;28;20037;-78
2023/05/01 14:20:03;;;;;;;5.55;2.80;;;;;;;;;;5048607;28;20044;-78
2023/05/01 14:22:29;;;;;;;;;;;;;;;;;;5051762;28;20139;-78
2023/05/01 14:24:56;;;;;;;6.45;2.70;;;;;;;;;;5051280;28;19923;-79
2023/05/01 14:27:21;;;;;;;8.37;3.40;;;;;;;;;;5043053;28;20032;-79
2023/05/01 14:29:48;;;;;;;6.13;3.25;;;;;;;;;;5057715;28;20182;-79
2023/05/01 14:32:15;;;;;;;6.20;3.13;;;;;;;;;;5048465;28;20432;-79
2023/05/01 14:34:41;;;;;;;5.37;2.20;;;;;;;;;;5036305;28;20036;-78
2023/05/01 14:37:08;;;;;;;7.03;2.83;;;;;;;;;;5030899;28;20132;-79
2023/05/01 14:39:33;;;;;;;7.07;3.17;;;;;;;;;;5054831;28;20032;-79
2023/05/01 14:41:59;;;;;;;5.40;2.75;;;;;;;;;;5049184;28;20287;-78
2023/05/01 14:44:27;;;;;;;5.32;2.78;;;;;;;;;;5048587;28;20435;-78